sensor_id;sensor_type;location;lat;lon;timestamp;pressure;altitude;pressure_sealevel;temperature;humidity
22930;BME280;11630;42.660;23.292;2023-02-16T00:01:14;67645.84;;;0.92;100.00
22930;BME280;11630;42.660;23.292;2023-02-16T00:03:44;67660.11;;;1.04;100.00
22930;BME280;11630;42.660;23.292;2023-02-16T00:06:15;67661.77;;;1.08;100.00
22930;BME280;11630;42.660;23.292;2023-02-16T00:08:47;67665.27;;;1.10;100.00
22930;BME280;11630;42.660;23.292;2023-02-16T00:11:20;67680.31;;;1.22;100.00
22930;BME280;11630;42.660;23.292;2023-02-16T00:14:08;67676.31;;;1.22;100.00
22930;BME280;11630;42.660;23.292;2023-02-16T00:16:38;67687.91;;;1.31;100.00
22930;BME280;11630;42.660;23.292;2023-02-16T00:19:17;67678.69;;;1.18;100.00
22930;BME280;11630;42.660;23.292;2023-02-16T00:21:50;67660.66;;;1.05;100.00
22930;BME280;11630;42.660;23.292;2023-02-16T00:24:21;67667.66;;;1.11;100.00
22930;BME280;11630;42.660;23.292;2023-02-16T00:26:52;67614.04;;;0.63;100.00
22930;BME280;11630;42.660;23.292;2023-02-16T00:29:29;67624.53;;;0.69;100.00
22930;BME280;11630;42.660;23.292;2023-02-16T00:32:02;67625.59;;;0.70;100.00
22930;BME280;11630;42.660;23.292;2023-02-16T00:34:34;67638.03;;;0.84;100.00
22930;BME280;11630;42.660;23.292;2023-02-16T00:37:06;67618.36;;;0.67;100.00
22930;BME280;11630;42.660;23.292;2023-02-16T00:39:41;67595.98;;;0.45;100.00
22930;BME280;11630;42.660;23.292;2023-02-16T00:42:16;67602.20;;;0.52;100.00
22930;BME280;11630;42.660;23.292;2023-02-16T00:44:46;67613.23;;;0.61;100.00
22930;BME280;11630;42.660;23.292;2023-02-16T00:47:22;67614.87;;;0.65;100.00
22930;BME280;11630;42.660;23.292;2023-02-16T00:49:53;67620.52;;;0.69;100.00
22930;BME280;11630;42.660;23.292;2023-02-16T00:52:34;67625.59;;;0.70;100.00
22930;BME280;11630;42.660;23.292;2023-02-16T00:55:06;67628.83;;;0.73;100.00
22930;BME280;11630;42.660;23.292;2023-02-16T00:57:39;67623.48;;;0.73;100.00
22930;BME280;11630;42.660;23.292;2023-02-16T01:00:16;67622.13;;;0.71;100.00
22930;BME280;11630;42.660;23.292;2023-02-16T01:02:48;67621.58;;;0.70;100.00
22930;BME280;11630;42.660;23.292;2023-02-16T01:05:20;67625.88;;;0.72;100.00
22930;BME280;11630;42.660;23.292;2023-02-16T01:07:49;67632.11;;;0.81;100.00
22930;BME280;11630;42.660;23.292;2023-02-16T01:10:37;67640.17;;;0.86;100.00
22930;BME280;11630;42.660;23.292;2023-02-16T01:13:28;67635.61;;;0.83;100.00
22930;BME280;11630;42.660;23.292;2023-02-16T01:15:59;67643.69;;;0.90;100.00
22930;BME280;11630;42.660;23.292;2023-02-16T01:18:29;67617.79;;;0.64;100.00
22930;BME280;11630;42.660;23.292;2023-02-16T01:21:00;67626.98;;;0.75;100.00
22930;BME280;11630;42.660;23.292;2023-02-16T01:23:31;67617.01;;;0.65;100.00
22930;BME280;11630;42.660;23.292;2023-02-16T01:26:02;67578.49;;;0.30;100.00
22930;BME280;11630;42.660;23.292;2023-02-16T01:28:34;67577.66;;;0.28;100.00
22930;BME280;11630;42.660;23.292;2023-02-16T01:31:05;67598.91;;;0.44;100.00
22930;BME280;11630;42.660;23.292;2023-02-16T01:33:36;67609.99;;;0.58;100.00
22930;BME280;11630;42.660;23.292;2023-02-16T01:38:47;67608.11;;;0.55;100.00
22930;BME280;11630;42.660;23.292;2023-02-16T01:41:53;67588.22;;;0.42;100.00
22930;BME280;11630;42.660;23.292;2023-02-16T01:44:27;67573.05;;;0.20;100.00
22930;BME280;11630;42.660;23.292;2023-02-16T01:47:18;67584.95;;;0.36;100.00
22930;BME280;11630;42.660;23.292;2023-02-16T01:49:45;67609.16;;;0.56;100.00
22930;BME280;11630;42.660;23.292;2023-02-16T01:57:45;67581.69;;;0.31;100.00
22930;BME280;11630;42.660;23.292;2023-02-16T02:00:26;67563.16;;;0.17;100.00
22930;BME280;11630;42.660;23.292;2023-02-16T02:02:59;67579.57;;;0.31;100.00
22930;BME280;11630;42.660;23.292;2023-02-16T02:05:43;67554.79;;;0.08;100.00
22930;BME280;11630;42.660;23.292;2023-02-16T02:08:22;67565.83;;;0.17;100.00
22930;BME280;11630;42.660;23.292;2023-02-16T02:11:10;67563.41;;;0.16;100.00
22930;BME280;11630;42.660;23.292;2023-02-16T02:13:46;67552.13;;;0.08;100.00
22930;BME280;11630;42.660;23.292;2023-02-16T02:16:19;67551.27;;;0.04;100.00
22930;BME280;11630;42.660;23.292;2023-02-16T02:18:55;67564.75;;;0.16;100.00
22930;BME280;11630;42.660;23.292;2023-02-16T02:21:49;67566.63;;;0.19;100.00
22930;BME280;11630;42.660;23.292;2023-02-16T02:24:56;67575.80;;;0.28;100.00
22930;BME280;11630;42.660;23.292;2023-02-16T02:27:31;67583.88;;;0.35;100.00
22930;BME280;11630;42.660;23.292;2023-02-16T02:33:04;67604.10;;;0.55;100.00
22930;BME280;11630;42.660;23.292;2023-02-16T02:38:26;67601.09;;;0.49;100.00
22930;BME280;11630;42.660;23.292;2023-02-16T02:41:14;67578.23;;;0.31;100.00
22930;BME280;11630;42.660;23.292;2023-02-16T02:46:34;67566.63;;;0.19;100.00
22930;BME280;11630;42.660;23.292;2023-02-16T02:49:05;67571.78;;;0.25;100.00
22930;BME280;11630;42.660;23.292;2023-02-16T02:51:36;67562.86;;;0.16;100.00
22930;BME280;11630;42.660;23.292;2023-02-16T02:54:53;67563.94;;;0.17;100.00
22930;BME280;11630;42.660;23.292;2023-02-16T02:57:04;67563.66;;;0.15;100.00
22930;BME280;11630;42.660;23.292;2023-02-16T03:00:03;67545.34;;;-0.02;100.00
22930;BME280;11630;42.660;23.292;2023-02-16T03:02:42;67549.11;;;0.02;100.00
22930;BME280;11630;42.660;23.292;2023-02-16T03:05:14;67559.89;;;0.12;100.00
22930;BME280;11630;42.660;23.292;2023-02-16T03:07:46;67563.16;;;0.17;100.00
22930;BME280;11630;42.660;23.292;2023-02-16T03:10:24;67556.97;;;0.13;100.00
22930;BME280;11630;42.660;23.292;2023-02-16T03:13:24;67551.55;;;0.05;100.00
22930;BME280;11630;42.660;23.292;2023-02-16T03:15:55;67549.59;;;-0.02;100.00
22930;BME280;11630;42.660;23.292;2023-02-16T03:18:27;67520.31;;;-0.23;100.00
22930;BME280;11630;42.660;23.292;2023-02-16T03:21:15;67523.56;;;-0.20;100.00
22930;BME280;11630;42.660;23.292;2023-02-16T03:24:04;67541.05;;;-0.05;100.00
22930;BME280;11630;42.660;23.292;2023-02-16T03:26:53;67539.97;;;-0.06;100.00
22930;BME280;11630;42.660;23.292;2023-02-16T03:29:40;67553.45;;;0.08;100.00
22930;BME280;11630;42.660;23.292;2023-02-16T03:32:11;67545.59;;;-0.02;100.00
22930;BME280;11630;42.660;23.292;2023-02-16T03:34:41;67556.95;;;0.10;100.00
22930;BME280;11630;42.660;23.292;2023-02-16T03:37:12;67552.36;;;0.05;100.00
22930;BME280;11630;42.660;23.292;2023-02-16T03:39:44;67551.78;;;0.02;100.00
22930;BME280;11630;42.660;23.292;2023-02-16T03:42:30;67571.78;;;0.25;100.00
22930;BME280;11630;42.660;23.292;2023-02-16T03:45:01;67588.70;;;0.37;100.00
22930;BME280;11630;42.660;23.292;2023-02-16T03:47:32;67583.27;;;0.30;100.00
22930;BME280;11630;42.660;23.292;2023-02-16T03:50:03;67579.57;;;0.31;100.00
22930;BME280;11630;42.660;23.292;2023-02-16T03:52:35;67589.50;;;0.37;100.00
22930;BME280;11630;42.660;23.292;2023-02-16T03:55:05;67603.28;;;0.53;100.00
22930;BME280;11630;42.660;23.292;2023-02-16T03:57:36;67562.31;;;0.13;100.00
22930;BME280;11630;42.660;23.292;2023-02-16T04:00:08;67561.50;;;0.13;100.00
22930;BME280;11630;42.660;23.292;2023-02-16T04:02:39;67567.41;;;0.16;100.00
22930;BME280;11630;42.660;23.292;2023-02-16T04:05:10;67565.57;;;0.18;100.00
22930;BME280;11630;42.660;23.292;2023-02-16T04:07:41;67584.95;;;0.36;100.00
22930;BME280;11630;42.660;23.292;2023-02-16T04:10:12;67566.08;;;0.16;100.00
22930;BME280;11630;42.660;23.292;2023-02-16T04:12:43;67563.41;;;0.16;100.00
22930;BME280;11630;42.660;23.292;2023-02-16T04:15:18;67560.97;;;0.13;100.00
22930;BME280;11630;42.660;23.292;2023-02-16T04:17:49;67562.61;;;0.17;100.00
22930;BME280;11630;42.660;23.292;2023-02-16T04:20:26;67534.59;;;-0.11;100.00
22930;BME280;11630;42.660;23.292;2023-02-16T04:22:55;67502.33;;;-0.36;100.00
22930;BME280;11630;42.660;23.292;2023-02-16T04:25:27;67499.57;;;-0.44;100.00
22930;BME280;11630;42.660;23.292;2023-02-16T04:27:58;67520.57;;;-0.24;100.00
22930;BME280;11630;42.660;23.292;2023-02-16T04:30:29;67526.78;;;-0.17;100.00
22930;BME280;11630;42.660;23.292;2023-02-16T04:33:00;67545.92;;;0.01;100.00
22930;BME280;11630;42.660;23.292;2023-02-16T04:35:31;67559.62;;;0.10;100.00
22930;BME280;11630;42.660;23.292;2023-02-16T04:38:03;67536.20;;;-0.10;100.00
22930;BME280;11630;42.660;23.292;2023-02-16T04:40:35;67559.09;;;0.12;100.00
22930;BME280;11630;42.660;23.292;2023-02-16T04:43:08;67524.64;;;-0.19;100.00
22930;BME280;11630;42.660;23.292;2023-02-16T04:45:39;67528.36;;;-0.18;100.00
22930;BME280;11630;42.660;23.292;2023-02-16T04:48:10;67516.30;;;-0.26;100.00
22930;BME280;11630;42.660;23.292;2023-02-16T04:50:40;67505.25;;;-0.37;100.00
22930;BME280;11630;42.660;23.292;2023-02-16T04:53:11;67484.83;;;-0.54;100.00
22930;BME280;11630;42.660;23.292;2023-02-16T04:55:48;67472.95;;;-0.67;100.00
22930;BME280;11630;42.660;23.292;2023-02-16T04:58:19;67475.06;;;-0.70;100.00
22930;BME280;11630;42.660;23.292;2023-02-16T05:00:51;67461.05;;;-0.83;100.00
22930;BME280;11630;42.660;23.292;2023-02-16T05:03:21;67474.03;;;-0.66;100.00
22930;BME280;11630;42.660;23.292;2023-02-16T05:05:52;67510.33;;;-0.36;100.00
22930;BME280;11630;42.660;23.292;2023-02-16T05:08:22;67533.51;;;-0.12;100.00
22930;BME280;11630;42.660;23.292;2023-02-16T05:10:56;67527.03;;;-0.18;100.00
22930;BME280;11630;42.660;23.292;2023-02-16T05:13:43;67522.73;;;-0.22;100.00
22930;BME280;11630;42.660;23.292;2023-02-16T05:16:31;67533.78;;;-0.11;100.00
22930;BME280;11630;42.660;23.292;2023-02-16T05:19:01;67541.80;;;-0.08;100.00
22930;BME280;11630;42.660;23.292;2023-02-16T05:21:33;67524.64;;;-0.19;100.00
22930;BME280;11630;42.660;23.292;2023-02-16T05:24:08;67522.98;;;-0.23;100.00
22930;BME280;11630;42.660;23.292;2023-02-16T05:26:39;67517.35;;;-0.27;100.00
22930;BME280;11630;42.660;23.292;2023-02-16T05:29:10;67535.12;;;-0.11;100.00
22930;BME280;11630;42.660;23.292;2023-02-16T05:31:41;67548.84;;;0.00;100.00
22930;BME280;11630;42.660;23.292;2023-02-16T05:34:12;67542.08;;;-0.07;100.00
22930;BME280;11630;42.660;23.292;2023-02-16T05:36:43;67553.94;;;0.04;100.00
22930;BME280;11630;42.660;23.292;2023-02-16T05:39:13;67550.47;;;0.04;100.00
22930;BME280;11630;42.660;23.292;2023-02-16T05:41:45;67546.13;;;-0.04;100.00
22930;BME280;11630;42.660;23.292;2023-02-16T05:44:16;67567.45;;;0.21;100.00
22930;BME280;11630;42.660;23.292;2023-02-16T05:46:47;67562.33;;;0.15;100.00
22930;BME280;11630;42.660;23.292;2023-02-16T05:49:16;67567.16;;;0.17;100.00
22930;BME280;11630;42.660;23.292;2023-02-16T05:51:45;67541.05;;;-0.05;100.00
22930;BME280;11630;42.660;23.292;2023-02-16T05:54:16;67561.25;;;0.14;100.00
22930;BME280;11630;42.660;23.292;2023-02-16T05:56:49;67556.13;;;0.08;100.00
22930;BME280;11630;42.660;23.292;2023-02-16T05:59:19;67520.57;;;-0.24;100.00
22930;BME280;11630;42.660;23.292;2023-02-16T06:01:49;67522.48;;;-0.21;100.00
22930;BME280;11630;42.660;23.292;2023-02-16T06:04:21;67495.25;;;-0.50;100.00
22930;BME280;11630;42.660;23.292;2023-02-16T06:06:52;67482.06;;;-0.61;100.00
22930;BME280;11630;42.660;23.292;2023-02-16T06:09:22;67509.24;;;-0.37;100.00
22930;BME280;11630;42.660;23.292;2023-02-16T06:11:52;67494.47;;;-0.47;100.00
22930;BME280;11630;42.660;23.292;2023-02-16T06:14:23;67512.78;;;-0.30;100.00
22930;BME280;11630;42.660;23.292;2023-02-16T06:16:53;67552.91;;;0.08;100.00
22930;BME280;11630;42.660;23.292;2023-02-16T06:19:24;67537.83;;;-0.06;100.00
22930;BME280;11630;42.660;23.292;2023-02-16T06:21:57;67531.92;;;-0.11;100.00
22930;BME280;11630;42.660;23.292;2023-02-16T06:24:27;67543.48;;;-0.02;100.00
22930;BME280;11630;42.660;23.292;2023-02-16T06:26:59;67560.42;;;0.12;100.00
22930;BME280;11630;42.660;23.292;2023-02-16T06:29:30;67572.28;;;0.23;100.00
22930;BME280;11630;42.660;23.292;2023-02-16T06:32:00;67577.16;;;0.30;100.00
22930;BME280;11630;42.660;23.292;2023-02-16T06:34:31;67613.53;;;0.65;100.00
22930;BME280;11630;42.660;23.292;2023-02-16T06:37:02;67632.63;;;0.79;100.00
22930;BME280;11630;42.660;23.292;2023-02-16T06:39:33;67613.77;;;0.62;100.00
22930;BME280;11630;42.660;23.292;2023-02-16T06:42:06;67613.23;;;0.61;100.00
22930;BME280;11630;42.660;23.292;2023-02-16T06:44:37;67604.66;;;0.58;100.00
22930;BME280;11630;42.660;23.292;2023-02-16T06:47:07;67641.27;;;0.89;100.00
22930;BME280;11630;42.660;23.292;2023-02-16T06:49:38;67649.88;;;0.95;100.00
22930;BME280;11630;42.660;23.292;2023-02-16T06:52:09;67683.34;;;1.31;100.00
22930;BME280;11630;42.660;23.292;2023-02-16T06:54:41;67707.90;;;1.54;100.00
22930;BME280;11630;42.660;23.292;2023-02-16T06:57:11;67733.70;;;1.68;100.00
22930;BME280;11630;42.660;23.292;2023-02-16T06:59:42;67752.89;;;1.90;100.00
22930;BME280;11630;42.660;23.292;2023-02-16T07:02:14;67803.91;;;2.38;100.00
22930;BME280;11630;42.660;23.292;2023-02-16T07:04:45;67795.27;;;2.30;100.00
22930;BME280;11630;42.660;23.292;2023-02-16T07:07:15;67822.78;;;2.53;100.00
22930;BME280;11630;42.660;23.292;2023-02-16T07:09:46;67866.80;;;2.95;100.00
22930;BME280;11630;42.660;23.292;2023-02-16T07:12:17;67866.53;;;2.96;100.00
22930;BME280;11630;42.660;23.292;2023-02-16T07:14:48;67908.63;;;3.29;100.00
22930;BME280;11630;42.660;23.292;2023-02-16T07:17:19;67911.63;;;3.36;100.00
22930;BME280;11630;42.660;23.292;2023-02-16T07:19:56;67909.48;;;3.36;100.00
22930;BME280;11630;42.660;23.292;2023-02-16T07:22:26;67945.97;;;3.69;100.00
22930;BME280;11630;42.660;23.292;2023-02-16T07:24:57;67953.24;;;3.74;100.00
22930;BME280;11630;42.660;23.292;2023-02-16T07:27:28;67917.27;;;3.37;100.00
22930;BME280;11630;42.660;23.292;2023-02-16T07:29:59;67986.75;;;4.02;100.00
22930;BME280;11630;42.660;23.292;2023-02-16T07:32:29;68007.58;;;4.23;99.38
22930;BME280;11630;42.660;23.292;2023-02-16T07:35:00;68012.16;;;4.26;99.19
22930;BME280;11630;42.660;23.292;2023-02-16T07:37:30;67989.44;;;4.02;99.57
22930;BME280;11630;42.660;23.292;2023-02-16T07:40:01;68019.78;;;4.38;100.00
22930;BME280;11630;42.660;23.292;2023-02-16T07:42:33;68080.61;;;4.92;97.06
22930;BME280;11630;42.660;23.292;2023-02-16T07:45:03;68111.20;;;5.19;94.51
22930;BME280;11630;42.660;23.292;2023-02-16T07:47:34;68145.56;;;5.49;93.00
22930;BME280;11630;42.660;23.292;2023-02-16T07:50:06;68116.60;;;5.24;94.19
22930;BME280;11630;42.660;23.292;2023-02-16T07:52:37;68113.92;;;5.27;93.81
22930;BME280;11630;42.660;23.292;2023-02-16T07:55:08;68135.28;;;5.40;93.38
22930;BME280;11630;42.660;23.292;2023-02-16T07:57:39;68214.64;;;6.16;91.00
22930;BME280;11630;42.660;23.292;2023-02-16T08:00:11;68253.09;;;6.47;88.67
22930;BME280;11630;42.660;23.292;2023-02-16T08:02:42;68209.22;;;6.09;87.96
22930;BME280;11630;42.660;23.292;2023-02-16T08:05:13;68204.61;;;6.04;88.46
22930;BME280;11630;42.660;23.292;2023-02-16T08:07:44;68208.14;;;6.08;89.21
22930;BME280;11630;42.660;23.292;2023-02-16T08:10:15;68219.50;;;6.16;88.75
22930;BME280;11630;42.660;23.292;2023-02-16T08:12:45;68135.81;;;5.40;90.18
22930;BME280;11630;42.660;23.292;2023-02-16T08:15:16;68232.79;;;6.29;88.57
22930;BME280;11630;42.660;23.292;2023-02-16T08:17:47;68299.45;;;6.90;86.09
22930;BME280;11630;42.660;23.292;2023-02-16T08:20:17;68353.16;;;7.45;82.81
22930;BME280;11630;42.660;23.292;2023-02-16T08:22:48;68327.92;;;7.18;83.57
22930;BME280;11630;42.660;23.292;2023-02-16T08:25:19;68306.48;;;6.97;83.77
22930;BME280;11630;42.660;23.292;2023-02-16T08:27:49;68277.23;;;6.75;84.96
22930;BME280;11630;42.660;23.292;2023-02-16T08:30:20;68276.70;;;6.72;86.38
22930;BME280;11630;42.660;23.292;2023-02-16T08:32:51;68240.08;;;6.35;85.97
22930;BME280;11630;42.660;23.292;2023-02-16T08:35:21;68362.09;;;7.52;82.67
22930;BME280;11630;42.660;23.292;2023-02-16T08:37:52;68372.66;;;7.58;81.29
22930;BME280;11630;42.660;23.292;2023-02-16T08:40:22;68343.38;;;7.31;82.18
22930;BME280;11630;42.660;23.292;2023-02-16T08:42:52;68480.97;;;8.58;78.90
22930;BME280;11630;42.660;23.292;2023-02-16T08:45:26;68510.81;;;8.83;75.12
22930;BME280;11630;42.660;23.292;2023-02-16T08:47:56;68369.96;;;7.60;78.38
22930;BME280;11630;42.660;23.292;2023-02-16T08:50:28;68346.09;;;7.36;81.41
22930;BME280;11630;42.660;23.292;2023-02-16T08:53:01;68438.89;;;8.23;79.09
22930;BME280;11630;42.660;23.292;2023-02-16T08:55:32;68517.35;;;8.91;73.86
22930;BME280;11630;42.660;23.292;2023-02-16T08:58:06;68507.84;;;8.84;74.41
22930;BME280;11630;42.660;23.292;2023-02-16T09:00:37;68583.61;;;9.49;73.38
22930;BME280;11630;42.660;23.292;2023-02-16T09:03:08;68651.88;;;10.18;68.69
22930;BME280;11630;42.660;23.292;2023-02-16T09:05:39;68636.09;;;10.01;67.23
22930;BME280;11630;42.660;23.292;2023-02-16T09:08:10;68679.34;;;10.39;66.23
22930;BME280;11630;42.660;23.292;2023-02-16T09:10:41;68655.94;;;10.13;67.15
22930;BME280;11630;42.660;23.292;2023-02-16T09:13:11;68561.35;;;9.31;69.07
22930;BME280;11630;42.660;23.292;2023-02-16T09:15:42;68503.51;;;8.80;72.08
22930;BME280;11630;42.660;23.292;2023-02-16T09:18:14;68529.82;;;9.00;71.52
22930;BME280;11630;42.660;23.292;2023-02-16T09:20:45;68375.09;;;7.61;77.72
22930;BME280;11630;42.660;23.292;2023-02-16T09:23:16;68526.88;;;9.06;73.93
22930;BME280;11630;42.660;23.292;2023-02-16T09:25:46;68657.03;;;10.19;67.53
22930;BME280;11630;42.660;23.292;2023-02-16T09:28:20;68697.02;;;10.54;65.88
22930;BME280;11630;42.660;23.292;2023-02-16T09:30:52;68648.87;;;10.11;66.13
22930;BME280;11630;42.660;23.292;2023-02-16T09:33:23;68682.31;;;10.38;66.01
22930;BME280;11630;42.660;23.292;2023-02-16T09:35:53;68618.67;;;9.85;68.21
22930;BME280;11630;42.660;23.292;2023-02-16T09:38:24;68729.92;;;10.88;64.10
22930;BME280;11630;42.660;23.292;2023-02-16T09:40:56;68756.31;;;11.08;62.54
22930;BME280;11630;42.660;23.292;2023-02-16T09:43:44;68730.19;;;10.89;63.06
22930;BME280;11630;42.660;23.292;2023-02-16T09:46:14;68660.28;;;10.22;64.10
22930;BME280;11630;42.660;23.292;2023-02-16T09:48:45;68662.47;;;10.24;64.06
22930;BME280;11630;42.660;23.292;2023-02-16T09:51:36;68664.64;;;10.26;64.83
22930;BME280;11630;42.660;23.292;2023-02-16T09:57:03;68693.73;;;10.49;63.21
22930;BME280;11630;42.660;23.292;2023-02-16T09:59:45;68681.78;;;10.43;62.54
22930;BME280;11630;42.660;23.292;2023-02-16T10:05:18;68801.52;;;11.52;59.90
22930;BME280;11630;42.660;23.292;2023-02-16T10:07:56;68803.41;;;11.52;59.50
22930;BME280;11630;42.660;23.292;2023-02-16T10:10:49;68872.03;;;12.15;57.05
22930;BME280;11630;42.660;23.292;2023-02-16T10:13:25;68897.90;;;12.35;55.49
22930;BME280;11630;42.660;23.292;2023-02-16T10:15:57;68924.05;;;12.61;54.94
22930;BME280;11630;42.660;23.292;2023-02-16T10:18:32;68787.32;;;11.34;57.17
22930;BME280;11630;42.660;23.292;2023-02-16T10:21:03;68672.26;;;10.33;61.60
22930;BME280;11630;42.660;23.292;2023-02-16T10:23:45;68644.80;;;10.09;63.99
22930;BME280;11630;42.660;23.292;2023-02-16T10:26:16;68748.43;;;11.07;60.88
22930;BME280;11630;42.660;23.292;2023-02-16T10:28:49;68733.73;;;10.86;60.87
22930;BME280;11630;42.660;23.292;2023-02-16T10:31:39;68715.22;;;10.70;61.15
22930;BME280;11630;42.660;23.292;2023-02-16T10:45:42;69101.33;;;14.25;49.11
22930;BME280;11630;42.660;23.292;2023-02-16T10:48:10;69008.56;;;13.41;50.08
22930;BME280;11630;42.660;23.292;2023-02-16T10:50:52;68919.41;;;12.58;52.07
22930;BME280;11630;42.660;23.292;2023-02-16T10:56:26;69098.59;;;14.25;48.33
22930;BME280;11630;42.660;23.292;2023-02-16T10:58:53;69172.02;;;14.81;46.99
22930;BME280;11630;42.660;23.292;2023-02-16T11:01:42;69206.70;;;15.14;45.26
22930;BME280;11630;42.660;23.292;2023-02-16T11:07:09;69116.89;;;14.33;46.75
22930;BME280;11630;42.660;23.292;2023-02-16T11:09:42;69205.31;;;15.19;44.85
22930;BME280;11630;42.660;23.292;2023-02-16T11:12:22;69012.94;;;13.45;48.58
22930;BME280;11630;42.660;23.292;2023-02-16T11:14:51;69078.66;;;14.03;47.53
22930;BME280;11630;42.660;23.292;2023-02-16T11:17:22;69120.95;;;14.46;46.45
22930;BME280;11630;42.660;23.292;2023-02-16T11:20:04;69062.30;;;13.88;46.45
22930;BME280;11630;42.660;23.292;2023-02-16T11:22:37;69113.06;;;14.32;47.34
22930;BME280;11630;42.660;23.292;2023-02-16T11:25:22;69197.41;;;15.10;44.99
22930;BME280;11630;42.660;23.292;2023-02-16T11:28:00;69075.39;;;13.95;47.65
22930;BME280;11630;42.660;23.292;2023-02-16T11:30:37;69194.14;;;15.00;46.36
22930;BME280;11630;42.660;23.292;2023-02-16T11:33:25;69265.44;;;15.73;43.74
22930;BME280;11630;42.660;23.292;2023-02-16T11:35:56;69294.66;;;16.01;43.10
22930;BME280;11630;42.660;23.292;2023-02-16T11:38:31;69305.05;;;16.08;42.44
22930;BME280;11630;42.660;23.292;2023-02-16T11:41:08;69350.19;;;16.43;41.01
22930;BME280;11630;42.660;23.292;2023-02-16T11:43:41;69261.59;;;15.67;42.65
22930;BME280;11630;42.660;23.292;2023-02-16T11:46:16;69291.38;;;15.98;41.50
22930;BME280;11630;42.660;23.292;2023-02-16T11:48:47;69201.78;;;15.12;42.47
22930;BME280;11630;42.660;23.292;2023-02-16T11:51:29;69118.50;;;14.42;45.63
22930;BME280;11630;42.660;23.292;2023-02-16T11:54:02;69263.25;;;15.64;42.55
22930;BME280;11630;42.660;23.292;2023-02-16T11:56:32;69291.67;;;15.92;42.35
22930;BME280;11630;42.660;23.292;2023-02-16T12:04:49;69351.80;;;16.52;40.66
22930;BME280;11630;42.660;23.292;2023-02-16T12:07:25;69357.29;;;16.52;39.99
22930;BME280;11630;42.660;23.292;2023-02-16T12:10:08;69381.59;;;16.78;39.58
22930;BME280;11630;42.660;23.292;2023-02-16T12:15:40;69457.16;;;17.39;38.21
22930;BME280;11630;42.660;23.292;2023-02-16T12:18:21;69465.63;;;17.50;37.59
22930;BME280;11630;42.660;23.292;2023-02-16T12:23:32;69353.19;;;16.49;39.80
22930;BME280;11630;42.660;23.292;2023-02-16T12:29:04;69292.48;;;15.97;40.25
22930;BME280;11630;42.660;23.292;2023-02-16T12:31:56;69370.41;;;16.64;39.22
22930;BME280;11630;42.660;23.292;2023-02-16T12:40:24;69499.81;;;17.85;37.89
22930;BME280;11630;42.660;23.292;2023-02-16T12:43:29;69545.00;;;18.22;37.55
22930;BME280;11630;42.660;23.292;2023-02-16T12:45:59;69584.98;;;18.58;36.90
22930;BME280;11630;42.660;23.292;2023-02-16T12:48:34;69541.42;;;18.18;36.83
22930;BME280;11630;42.660;23.292;2023-02-16T12:51:07;69527.78;;;17.98;36.96
22930;BME280;11630;42.660;23.292;2023-02-16T12:53:55;69366.02;;;16.65;39.56
22930;BME280;11630;42.660;23.292;2023-02-16T12:56:20;69483.12;;;17.66;40.39
22930;BME280;11630;42.660;23.292;2023-02-16T12:58:50;69410.63;;;16.96;38.32
22930;BME280;11630;42.660;23.292;2023-02-16T13:01:26;69389.03;;;16.71;39.36
22930;BME280;11630;42.660;23.292;2023-02-16T13:07:04;69392.81;;;16.89;37.96
22930;BME280;11630;42.660;23.292;2023-02-16T13:09:36;69381.59;;;16.83;37.97
22930;BME280;11630;42.660;23.292;2023-02-16T13:12:29;69378.62;;;16.66;38.68
22930;BME280;11630;42.660;23.292;2023-02-16T13:15:09;69157.81;;;14.80;41.66
22930;BME280;11630;42.660;23.292;2023-02-16T13:17:42;69116.89;;;14.33;43.12
22930;BME280;11630;42.660;23.292;2023-02-16T13:20:17;69120.70;;;14.39;43.12
22930;BME280;11630;42.660;23.292;2023-02-16T13:26:03;68977.50;;;13.15;46.84
22930;BME280;11630;42.660;23.292;2023-02-16T13:29:13;68998.48;;;13.28;46.21
22930;BME280;11630;42.660;23.292;2023-02-16T13:31:48;68979.39;;;13.18;46.22
22930;BME280;11630;42.660;23.292;2023-02-16T13:43:30;68881.84;;;12.27;49.65
22930;BME280;11630;42.660;23.292;2023-02-16T13:46:02;68903.06;;;12.43;49.37
22930;BME280;11630;42.660;23.292;2023-02-16T13:48:48;68916.16;;;12.53;48.98
22930;BME280;11630;42.660;23.292;2023-02-16T13:51:21;68896.82;;;12.41;49.33
22930;BME280;11630;42.660;23.292;2023-02-16T13:53:56;68885.92;;;12.31;49.66
22930;BME280;11630;42.660;23.292;2023-02-16T13:56:34;68895.17;;;12.40;49.47
22930;BME280;11630;42.660;23.292;2023-02-16T14:01:51;68894.64;;;12.34;49.30
22930;BME280;11630;42.660;23.292;2023-02-16T14:09:48;68870.38;;;12.14;49.90
22930;BME280;11630;42.660;23.292;2023-02-16T14:12:28;68855.69;;;12.05;50.03
22930;BME280;11630;42.660;23.292;2023-02-16T14:14:59;68849.95;;;11.99;51.07
22930;BME280;11630;42.660;23.292;2023-02-16T14:17:33;68854.86;;;12.01;51.06
22930;BME280;11630;42.660;23.292;2023-02-16T14:20:28;68860.86;;;12.04;50.80
22930;BME280;11630;42.660;23.292;2023-02-16T14:22:48;68843.16;;;11.94;50.89
22930;BME280;11630;42.660;23.292;2023-02-16T14:25:30;68849.16;;;11.97;51.03
22930;BME280;11630;42.660;23.292;2023-02-16T14:30:57;68849.96;;;11.91;50.99
22930;BME280;11630;42.660;23.292;2023-02-16T14:33:39;68838.26;;;11.87;51.34
22930;BME280;11630;42.660;23.292;2023-02-16T14:36:18;68826.28;;;11.81;51.38
22930;BME280;11630;42.660;23.292;2023-02-16T14:38:53;68818.11;;;11.71;53.57
22930;BME280;11630;42.660;23.292;2023-02-16T14:41:30;68805.32;;;11.53;54.61
22930;BME280;11630;42.660;23.292;2023-02-16T14:44:25;68801.52;;;11.52;54.78
22930;BME280;11630;42.660;23.292;2023-02-16T14:52:56;68774.00;;;11.23;56.44
22930;BME280;11630;42.660;23.292;2023-02-16T15:00:54;68745.69;;;11.00;58.20
22930;BME280;11630;42.660;23.292;2023-02-16T15:03:37;68745.42;;;10.96;58.44
22930;BME280;11630;42.660;23.292;2023-02-16T15:06:01;68726.65;;;10.87;59.31